createdAt,value
2018-09-25T00:01:47.150Z,1.70
2018-09-25T00:04:20.204Z,1.93
2018-09-25T00:06:53.351Z,1.50
2018-09-25T00:09:26.510Z,1.73
2018-09-25T00:11:59.718Z,1.87
2018-09-25T00:14:32.918Z,1.77
2018-09-25T00:17:06.112Z,1.90
2018-09-25T00:19:39.204Z,1.73
2018-09-25T00:22:12.325Z,1.60
2018-09-25T00:24:45.291Z,1.90
2018-09-25T00:27:18.475Z,1.63
2018-09-25T00:29:51.483Z,1.90
2018-09-25T00:32:24.734Z,1.47
2018-09-25T00:34:57.919Z,1.87
2018-09-25T00:37:31.018Z,1.47
2018-09-25T00:40:04.136Z,2.07
2018-09-25T00:42:37.347Z,1.90
2018-09-25T00:45:10.446Z,1.60
2018-09-25T00:47:43.571Z,1.70
2018-09-25T00:50:16.654Z,1.77
2018-09-25T00:52:49.881Z,1.90
2018-09-25T00:55:23.042Z,1.50
2018-09-25T00:57:56.191Z,2.20
2018-09-25T01:00:29.321Z,1.90
2018-09-25T01:03:02.470Z,2.30
2018-09-25T01:05:35.750Z,1.73
2018-09-25T01:08:08.943Z,1.63
2018-09-25T01:10:42.222Z,1.90
2018-09-25T01:13:15.632Z,1.83
2018-09-25T01:15:48.804Z,1.90
2018-09-25T01:18:21.905Z,1.90
2018-09-25T01:20:54.925Z,1.73
2018-09-25T01:23:28.200Z,2.00
2018-09-25T01:26:01.225Z,2.10
2018-09-25T01:28:34.452Z,2.00
2018-09-25T01:31:07.627Z,1.93
2018-09-25T01:33:40.819Z,1.70
2018-09-25T01:36:14.049Z,2.50
2018-09-25T01:38:47.254Z,1.80
2018-09-25T01:41:20.430Z,2.40
2018-09-25T01:43:53.499Z,1.93
2018-09-25T01:46:26.680Z,2.13
2018-09-25T01:49:00.024Z,1.90
2018-09-25T01:51:33.191Z,1.80
2018-09-25T01:54:06.564Z,1.60
2018-09-25T01:56:39.625Z,1.80
2018-09-25T01:59:27.578Z,1.83
2018-09-25T02:02:00.796Z,2.10
2018-09-25T02:04:33.988Z,1.67
2018-09-25T02:07:07.085Z,2.20
2018-09-25T02:09:40.252Z,2.67
2018-09-25T02:12:13.342Z,1.80
2018-09-25T02:14:46.693Z,2.10
2018-09-25T02:17:19.696Z,2.33
2018-09-25T02:19:52.941Z,2.20
2018-09-25T02:22:25.906Z,2.07
2018-09-25T02:24:59.125Z,1.40
2018-09-25T02:27:32.179Z,1.60
2018-09-25T02:30:05.394Z,2.70
2018-09-25T02:32:38.459Z,1.80
2018-09-25T02:35:11.692Z,1.87
2018-09-25T02:37:44.834Z,1.80
2018-09-25T02:40:18.032Z,1.90
2018-09-25T02:42:51.414Z,1.80
2018-09-25T02:45:24.659Z,2.47
2018-09-25T02:47:57.709Z,1.70
2018-09-25T02:50:30.689Z,2.10
2018-09-25T02:53:03.676Z,1.60
2018-09-25T02:55:36.839Z,1.80
2018-09-25T02:58:09.978Z,2.03
2018-09-25T03:00:43.058Z,1.97
2018-09-25T03:03:16.165Z,2.27
2018-09-25T03:05:49.186Z,1.70
2018-09-25T03:08:22.214Z,2.27
2018-09-25T03:10:55.371Z,2.40
2018-09-25T03:13:28.504Z,2.00
2018-09-25T03:16:01.723Z,2.43
2018-09-25T03:18:34.745Z,1.67
2018-09-25T03:21:07.725Z,1.87
2018-09-25T03:23:41.032Z,2.07
2018-09-25T03:26:14.144Z,2.10
2018-09-25T03:28:47.255Z,2.00
2018-09-25T03:31:20.266Z,1.83
2018-09-25T03:33:53.429Z,2.50
2018-09-25T03:36:26.662Z,2.13
2018-09-25T03:39:00.073Z,2.73
2018-09-25T03:41:33.559Z,2.23
2018-09-25T03:44:06.593Z,2.30
2018-09-25T03:46:39.851Z,1.63
2018-09-25T03:49:12.854Z,1.97
2018-09-25T03:51:46.005Z,2.10
2018-09-25T03:54:19.142Z,2.30
2018-09-25T03:56:52.287Z,2.27
2018-09-25T03:59:25.506Z,2.30
2018-09-25T04:01:58.678Z,2.20
2018-09-25T04:04:31.837Z,1.90
2018-09-25T04:07:04.876Z,2.23
2018-09-25T04:09:37.942Z,2.27
2018-09-25T04:12:11.266Z,2.10
2018-09-25T04:14:44.403Z,2.10
2018-09-25T04:17:17.597Z,1.90
2018-09-25T04:19:50.863Z,2.37
2018-09-25T04:22:24.025Z,1.77
2018-09-25T04:24:57.418Z,2.03
2018-09-25T04:27:30.506Z,2.90
2018-09-25T04:30:03.502Z,2.00
2018-09-25T04:32:36.771Z,2.20
2018-09-25T04:35:09.989Z,2.30
2018-09-25T04:37:43.028Z,2.27
2018-09-25T04:40:16.215Z,1.90
2018-09-25T04:42:49.448Z,2.40
2018-09-25T04:45:22.437Z,2.30
2018-09-25T04:47:55.643Z,2.20
2018-09-25T04:50:28.760Z,2.67
2018-09-25T04:53:01.857Z,2.73
2018-09-25T04:55:35.056Z,3.73
2018-09-25T04:58:08.049Z,2.83
2018-09-25T05:00:41.239Z,2.57
2018-09-25T05:03:14.313Z,2.67
2018-09-25T05:05:47.398Z,2.63
2018-09-25T05:08:20.617Z,3.10
2018-09-25T05:10:54.836Z,3.17
2018-09-25T05:13:28.250Z,2.60
2018-09-25T05:16:01.165Z,3.00
2018-09-25T05:18:34.230Z,2.73
2018-09-25T05:21:07.235Z,2.73
2018-09-25T05:23:40.393Z,3.93
2018-09-25T05:26:13.434Z,2.30
2018-09-25T05:28:46.629Z,3.57
2018-09-25T05:31:19.981Z,2.70
2018-09-25T05:33:53.158Z,2.80
2018-09-25T05:36:26.271Z,2.97
2018-09-25T05:38:59.430Z,2.70
2018-09-25T05:41:33.101Z,3.10
2018-09-25T05:44:06.170Z,3.03
2018-09-25T05:46:39.279Z,2.93
2018-09-25T05:49:12.521Z,3.23
2018-09-25T05:51:45.470Z,3.10
2018-09-25T05:54:18.618Z,2.90
2018-09-25T05:56:51.724Z,3.07
2018-09-25T05:59:25.009Z,2.83
2018-09-25T06:01:58.166Z,3.60
2018-09-25T06:04:31.386Z,3.23
2018-09-25T06:07:04.432Z,2.73
2018-09-25T06:09:37.683Z,2.80
2018-09-25T06:12:10.727Z,2.83
2018-09-25T06:14:43.933Z,2.70
2018-09-25T06:17:17.104Z,3.30
2018-09-25T06:19:50.346Z,3.70
2018-09-25T06:22:23.591Z,3.50
2018-09-25T06:24:56.778Z,3.93
2018-09-25T06:27:29.940Z,3.23
2018-09-25T06:30:03.078Z,3.20
2018-09-25T06:32:36.201Z,3.50
2018-09-25T06:35:09.488Z,3.37
2018-09-25T06:37:42.602Z,3.60
2018-09-25T06:40:15.855Z,3.17
2018-09-25T06:42:48.958Z,3.30
2018-09-25T06:45:22.033Z,3.27
2018-09-25T06:47:55.213Z,3.43
2018-09-25T06:50:28.340Z,3.50
2018-09-25T06:53:01.463Z,3.80
2018-09-25T06:55:34.551Z,3.00
2018-09-25T06:58:07.535Z,3.20
2018-09-25T07:00:40.630Z,3.30
2018-09-25T07:03:13.849Z,2.70
2018-09-25T07:05:46.958Z,3.70
2018-09-25T07:08:20.146Z,2.83
2018-09-25T07:10:53.333Z,3.10
2018-09-25T07:13:26.391Z,3.03
2018-09-25T07:15:59.715Z,3.27
2018-09-25T07:18:32.757Z,2.63
2018-09-25T07:21:05.906Z,2.63
2018-09-25T07:23:39.187Z,3.57
2018-09-25T07:26:12.303Z,2.77
2018-09-25T07:28:45.430Z,2.53
2018-09-25T07:31:18.655Z,3.03
2018-09-25T07:33:51.924Z,3.10
2018-09-25T07:36:25.070Z,2.83
2018-09-25T07:38:58.102Z,2.20
2018-09-25T07:41:31.225Z,3.47
2018-09-25T07:44:04.278Z,2.20
2018-09-25T07:46:37.494Z,2.83
2018-09-25T07:49:10.805Z,2.70
2018-09-25T07:51:43.974Z,2.50
2018-09-25T07:54:17.195Z,2.90
2018-09-25T07:56:50.349Z,2.97
2018-09-25T07:59:23.384Z,2.40
2018-09-25T08:01:56.421Z,2.77
2018-09-25T08:04:29.744Z,2.40
2018-09-25T08:07:03.088Z,2.02
2018-09-25T08:09:36.106Z,2.70
2018-09-25T08:12:09.038Z,2.15
2018-09-25T08:14:42.044Z,2.55
2018-09-25T08:17:15.503Z,1.95
2018-09-25T08:19:48.661Z,2.40
2018-09-25T08:22:21.883Z,3.10
2018-09-25T08:25:09.753Z,2.10
2018-09-25T08:27:42.986Z,2.37
2018-09-25T08:30:16.163Z,2.02
2018-09-25T08:32:49.386Z,2.27
2018-09-25T08:35:22.427Z,2.47
2018-09-25T08:37:55.566Z,1.80
2018-09-25T08:40:28.726Z,2.65
2018-09-25T08:43:01.957Z,2.27
2018-09-25T08:45:35.108Z,2.20
2018-09-25T08:48:08.205Z,2.22
2018-09-25T08:50:41.257Z,2.42
2018-09-25T08:53:14.267Z,2.17
2018-09-25T08:55:47.461Z,2.77
2018-09-25T08:58:20.540Z,2.80
2018-09-25T09:00:53.677Z,2.63
2018-09-25T09:03:26.873Z,3.00
2018-09-25T09:05:59.906Z,2.63
2018-09-25T09:08:33.082Z,2.50
2018-09-25T09:11:06.108Z,2.47
2018-09-25T09:13:39.265Z,2.67
2018-09-25T09:16:12.658Z,4.97
2018-09-25T09:18:46.347Z,2.63
2018-09-25T09:21:19.593Z,3.20
2018-09-25T09:23:52.907Z,3.30
2018-09-25T09:26:26.040Z,3.23
2018-09-25T09:28:59.325Z,2.60
2018-09-25T09:31:32.563Z,2.50
2018-09-25T09:34:05.912Z,3.47
2018-09-25T09:36:39.157Z,2.70
2018-09-25T09:39:13.779Z,3.50
2018-09-25T09:41:47.053Z,2.60
2018-09-25T09:44:20.093Z,2.67
2018-09-25T09:46:53.299Z,3.03
2018-09-25T09:49:26.484Z,2.77
2018-09-25T09:51:59.746Z,3.50
2018-09-25T09:54:32.818Z,3.10
2018-09-25T09:57:06.029Z,2.23
2018-09-25T09:59:39.178Z,2.40
2018-09-25T10:02:12.194Z,2.80
2018-09-25T10:04:45.421Z,3.07
2018-09-25T10:07:18.525Z,2.30
2018-09-25T10:09:51.582Z,3.87
2018-09-25T10:12:24.836Z,1.87
2018-09-25T10:14:57.949Z,2.53
2018-09-25T10:17:31.079Z,2.23
2018-09-25T10:20:04.365Z,2.40
2018-09-25T10:22:37.456Z,2.00
2018-09-25T10:25:11.066Z,2.13
2018-09-25T10:27:44.100Z,1.97
2018-09-25T10:30:17.312Z,1.83
2018-09-25T10:32:50.403Z,1.80
2018-09-25T10:35:23.622Z,1.83
2018-09-25T10:37:56.786Z,1.90
2018-09-25T10:40:29.792Z,2.63
2018-09-25T10:43:02.917Z,2.30
2018-09-25T10:45:36.080Z,1.97
2018-09-25T10:48:09.258Z,1.67
2018-09-25T10:50:42.675Z,2.07
2018-09-25T10:53:15.751Z,2.40
2018-09-25T10:55:48.797Z,1.60
2018-09-25T10:58:21.952Z,1.80
2018-09-25T11:00:55.062Z,2.07
2018-09-25T11:03:28.293Z,1.80
2018-09-25T11:06:01.287Z,1.97
2018-09-25T11:08:34.471Z,1.43
2018-09-25T11:11:07.586Z,2.00
2018-09-25T11:13:40.823Z,1.80
2018-09-25T11:16:14.058Z,1.60
2018-09-25T11:18:47.347Z,1.80
2018-09-25T11:21:20.573Z,1.80
2018-09-25T11:23:53.643Z,1.87
2018-09-25T11:26:26.860Z,2.20
2018-09-25T11:29:00.410Z,2.20
2018-09-25T11:31:33.521Z,2.13
2018-09-25T11:34:06.830Z,1.73
2018-09-25T11:36:40.227Z,1.70
2018-09-25T11:39:13.673Z,1.43
2018-09-25T11:41:46.977Z,1.40
2018-09-25T11:44:20.090Z,1.70
2018-09-25T11:46:53.408Z,1.87
2018-09-25T11:49:26.392Z,1.93
2018-09-25T11:51:59.644Z,1.70
2018-09-25T11:54:35.762Z,1.33
2018-09-25T11:57:08.775Z,1.20
2018-09-25T11:59:41.899Z,1.70
2018-09-25T12:02:15.288Z,1.70
2018-09-25T12:04:48.266Z,1.33
2018-09-25T12:07:21.601Z,1.47
2018-09-25T12:09:54.723Z,1.63
2018-09-25T12:12:27.968Z,1.60
2018-09-25T12:15:01.141Z,1.43
2018-09-25T12:17:34.230Z,2.40
2018-09-25T12:20:07.291Z,1.57
2018-09-25T12:22:40.349Z,1.40
2018-09-25T12:25:13.547Z,1.40
2018-09-25T12:27:46.809Z,2.13
2018-09-25T12:30:19.888Z,1.43
2018-09-25T12:32:52.956Z,1.60
2018-09-25T12:35:26.169Z,1.80
2018-09-25T12:37:59.396Z,1.73
2018-09-25T12:40:32.613Z,1.50
2018-09-25T12:43:05.788Z,1.83
2018-09-25T12:45:38.872Z,1.30
2018-09-25T12:48:11.902Z,1.23
2018-09-25T12:50:45.071Z,1.50
2018-09-25T12:53:18.325Z,1.43
2018-09-25T12:55:51.517Z,1.70
2018-09-25T12:58:24.630Z,1.80
2018-09-25T13:00:57.697Z,1.70
2018-09-25T13:03:30.987Z,1.47
2018-09-25T13:06:04.074Z,1.50
2018-09-25T13:08:37.276Z,1.40
2018-09-25T13:11:10.593Z,1.63
2018-09-25T13:13:43.720Z,1.80
2018-09-25T13:16:16.813Z,1.33
2018-09-25T13:18:50.058Z,2.07
2018-09-25T13:21:23.083Z,1.30
2018-09-25T13:23:56.160Z,2.00
2018-09-25T13:26:29.081Z,1.83
2018-09-25T13:29:02.321Z,1.63
2018-09-25T13:31:35.476Z,1.27
2018-09-25T13:34:08.533Z,1.30
2018-09-25T13:36:41.714Z,1.90
2018-09-25T13:39:14.926Z,1.43
2018-09-25T13:41:48.311Z,1.50
2018-09-25T13:44:21.434Z,1.80
2018-09-25T13:46:54.627Z,2.00
2018-09-25T13:49:27.874Z,1.40
2018-09-25T13:52:00.887Z,1.53
2018-09-25T13:54:33.873Z,1.67
2018-09-25T13:57:07.092Z,1.30
2018-09-25T13:59:40.184Z,1.67
2018-09-25T14:02:13.242Z,1.70
2018-09-25T14:04:46.455Z,1.87
2018-09-25T14:07:19.518Z,1.70
2018-09-25T14:09:52.780Z,1.83
2018-09-25T14:12:26.063Z,2.00
2018-09-25T14:14:59.241Z,1.80
2018-09-25T14:17:32.421Z,1.60
2018-09-25T14:20:06.548Z,1.50
2018-09-25T14:22:39.761Z,2.10
2018-09-25T14:25:12.949Z,2.23
2018-09-25T14:27:46.159Z,1.30
2018-09-25T14:30:19.360Z,1.80
2018-09-25T14:32:52.631Z,3.20
2018-09-25T14:35:26.455Z,1.47
2018-09-25T14:37:59.807Z,1.50
2018-09-25T14:40:32.935Z,1.90
2018-09-25T14:43:06.218Z,1.70
2018-09-25T14:45:39.643Z,1.30
2018-09-25T14:48:12.776Z,1.77
2018-09-25T14:50:45.834Z,1.83
2018-09-25T14:53:19.031Z,1.60
2018-09-25T14:55:52.249Z,1.70
2018-09-25T14:58:25.173Z,1.73
2018-09-25T15:00:58.317Z,1.50
2018-09-25T15:03:31.484Z,1.67
2018-09-25T15:06:04.615Z,1.60
2018-09-25T15:08:37.679Z,1.70
2018-09-25T15:11:10.854Z,1.50
2018-09-25T15:13:44.053Z,1.70
2018-09-25T15:16:17.169Z,1.60
2018-09-25T15:18:50.337Z,1.53
2018-09-25T15:21:23.641Z,1.40
2018-09-25T15:23:56.645Z,1.50
2018-09-25T15:26:29.797Z,1.60
2018-09-25T15:29:02.821Z,2.27
2018-09-25T15:31:35.938Z,1.23
2018-09-25T15:34:09.091Z,1.47
2018-09-25T15:36:42.340Z,1.63
2018-09-25T15:39:15.455Z,1.70
2018-09-25T15:41:48.570Z,1.80
2018-09-25T15:44:21.632Z,1.40
2018-09-25T15:46:54.775Z,1.40
2018-09-25T15:49:27.768Z,1.70
2018-09-25T15:52:00.908Z,1.93
2018-09-25T15:54:34.062Z,1.50
2018-09-25T15:57:07.329Z,1.70
2018-09-25T15:59:40.443Z,1.50
2018-09-25T16:02:13.752Z,1.60
2018-09-25T16:04:47.666Z,1.50
2018-09-25T16:07:20.921Z,1.40
2018-09-25T16:09:54.092Z,1.77
2018-09-25T16:12:27.241Z,1.20
2018-09-25T16:15:00.346Z,1.43
2018-09-25T16:17:33.559Z,1.97
2018-09-25T16:20:06.668Z,1.40
2018-09-25T16:22:40.684Z,1.67
2018-09-25T16:25:15.103Z,1.40
2018-09-25T16:27:49.169Z,1.27
2018-09-25T16:30:22.361Z,1.80
2018-09-25T16:32:55.744Z,2.27
2018-09-25T16:35:29.022Z,1.70
2018-09-25T16:38:02.113Z,1.30
2018-09-25T16:40:35.501Z,1.70
2018-09-25T16:43:10.461Z,1.40
2018-09-25T16:45:44.749Z,1.77
2018-09-25T16:48:18.248Z,2.03
2018-09-25T16:50:51.607Z,1.53
2018-09-25T16:53:25.015Z,2.50
2018-09-25T16:55:58.442Z,1.63
2018-09-25T16:58:31.690Z,1.90
2018-09-25T17:01:05.182Z,1.53
2018-09-25T17:03:38.405Z,1.93
2018-09-25T17:06:11.697Z,1.87
2018-09-25T17:08:44.834Z,1.20
2018-09-25T17:11:18.217Z,1.90
2018-09-25T17:13:51.497Z,2.47
2018-09-25T17:16:24.835Z,1.60
2018-09-25T17:18:58.370Z,1.60
2018-09-25T17:21:31.777Z,1.67
2018-09-25T17:24:04.948Z,1.57
2018-09-25T17:26:38.253Z,1.70
2018-09-25T17:29:11.758Z,1.70
2018-09-25T17:31:45.011Z,1.17
2018-09-25T17:34:18.042Z,1.77
2018-09-25T17:36:51.451Z,1.40
2018-09-25T17:39:33.508Z,1.90
2018-09-25T17:42:08.231Z,1.20
2018-09-25T17:44:41.624Z,1.80
2018-09-25T17:47:15.275Z,1.70
2018-09-25T17:49:48.722Z,1.80
2018-09-25T17:52:21.923Z,1.60
2018-09-25T17:54:56.036Z,1.63
2018-09-25T17:57:36.286Z,1.57
2018-09-25T18:00:10.679Z,1.83
2018-09-25T18:02:43.844Z,2.07
2018-09-25T18:05:17.179Z,1.63
2018-09-25T18:07:50.548Z,2.17
2018-09-25T18:10:23.922Z,1.80
2018-09-25T18:12:57.083Z,2.00
2018-09-25T18:15:30.132Z,2.13
2018-09-25T18:18:03.131Z,2.10
2018-09-25T18:20:36.249Z,2.10
2018-09-25T18:23:09.459Z,1.83
2018-09-25T18:25:42.741Z,1.93
2018-09-25T18:28:15.971Z,2.20
2018-09-25T18:30:49.067Z,2.00
2018-09-25T18:33:22.369Z,2.40
2018-09-25T18:35:55.622Z,2.40
2018-09-25T18:38:29.016Z,2.10
2018-09-25T18:41:02.339Z,2.70
2018-09-25T18:43:35.428Z,1.90
2018-09-25T18:46:08.450Z,2.13
2018-09-25T18:48:41.579Z,2.10
2018-09-25T18:51:14.763Z,2.60
2018-09-25T18:53:48.066Z,2.63
2018-09-25T18:56:21.263Z,2.73
2018-09-25T18:58:54.413Z,2.57
2018-09-25T19:01:27.679Z,2.40
2018-09-25T19:04:00.709Z,2.90
2018-09-25T19:06:33.846Z,2.87
2018-09-25T19:09:07.268Z,2.20
2018-09-25T19:11:40.450Z,2.40
2018-09-25T19:14:13.859Z,2.30
2018-09-25T19:16:46.890Z,2.20
2018-09-25T19:19:20.067Z,2.17
2018-09-25T19:21:53.356Z,2.37
2018-09-25T19:24:26.572Z,2.70
2018-09-25T19:26:59.818Z,2.30
2018-09-25T19:29:32.864Z,2.30
2018-09-25T19:32:06.107Z,2.13
2018-09-25T19:34:39.153Z,3.00
2018-09-25T19:37:12.423Z,2.87
2018-09-25T19:39:45.428Z,2.73
2018-09-25T19:42:18.759Z,2.63
2018-09-25T19:44:51.909Z,3.33
2018-09-25T19:47:24.927Z,2.60
2018-09-25T19:49:58.067Z,2.40
2018-09-25T19:52:31.385Z,2.47
2018-09-25T19:55:04.619Z,2.63
2018-09-25T19:57:37.814Z,2.60
2018-09-25T20:00:11.480Z,2.40
2018-09-25T20:02:44.715Z,2.33
2018-09-25T20:05:17.979Z,2.80
2018-09-25T20:07:51.618Z,2.57
2018-09-25T20:10:24.967Z,3.90
2018-09-25T20:12:58.378Z,2.53
2018-09-25T20:15:31.798Z,2.90
2018-09-25T20:18:05.084Z,2.57
2018-09-25T20:20:38.341Z,2.60
2018-09-25T20:23:11.722Z,2.80
2018-09-25T20:25:44.910Z,2.50
2018-09-25T20:28:18.254Z,3.10
2018-09-25T20:30:51.406Z,2.80
2018-09-25T20:33:24.638Z,2.20
2018-09-25T20:35:57.530Z,3.33
2018-09-25T20:38:30.671Z,2.87
2018-09-25T20:41:03.948Z,3.00
2018-09-25T20:43:37.170Z,2.47
2018-09-25T20:46:10.127Z,3.47
2018-09-25T20:48:43.294Z,3.37
2018-09-25T20:51:23.190Z,3.57
2018-09-25T20:53:56.398Z,4.37
2018-09-25T20:56:29.441Z,3.77
2018-09-25T20:59:02.640Z,3.07
2018-09-25T21:01:35.914Z,3.30
2018-09-25T21:04:09.482Z,3.17
2018-09-25T21:06:42.489Z,3.60
2018-09-25T21:09:15.743Z,3.10
2018-09-25T21:11:48.767Z,2.90
2018-09-25T21:14:21.920Z,3.37
2018-09-25T21:16:55.206Z,3.20
2018-09-25T21:19:28.447Z,3.73
2018-09-25T21:22:01.538Z,3.80
2018-09-25T21:24:34.783Z,3.53
2018-09-25T21:27:08.018Z,4.50
2018-09-25T21:29:41.214Z,3.60
2018-09-25T21:32:14.335Z,3.40
2018-09-25T21:34:47.370Z,2.63
2018-09-25T21:37:20.484Z,2.73
2018-09-25T21:39:53.622Z,2.53
2018-09-25T21:42:26.848Z,2.97
2018-09-25T21:45:00.049Z,3.10
2018-09-25T21:47:33.114Z,2.97
2018-09-25T21:50:06.329Z,3.00
2018-09-25T21:52:39.494Z,3.10
2018-09-25T21:55:12.696Z,2.80
2018-09-25T21:57:45.767Z,2.90
2018-09-25T22:00:18.990Z,2.60
2018-09-25T22:02:52.115Z,2.40
2018-09-25T22:05:25.246Z,2.70
2018-09-25T22:07:58.451Z,2.90
2018-09-25T22:10:31.523Z,2.93
2018-09-25T22:13:04.709Z,2.80
2018-09-25T22:15:37.907Z,3.20
2018-09-25T22:18:11.000Z,2.70
2018-09-25T22:20:44.114Z,3.10
2018-09-25T22:23:17.277Z,3.20
2018-09-25T22:25:50.415Z,3.67
2018-09-25T22:28:23.528Z,2.73
2018-09-25T22:30:56.782Z,1.97
2018-09-25T22:33:30.057Z,2.77
2018-09-25T22:36:03.248Z,2.73
2018-09-25T22:38:36.493Z,2.83
2018-09-25T22:41:09.778Z,2.40
2018-09-25T22:43:42.802Z,2.93
2018-09-25T22:46:15.879Z,3.10
2018-09-25T22:48:48.962Z,2.40
2018-09-25T22:51:22.148Z,2.73
2018-09-25T22:53:55.352Z,2.77
2018-09-25T22:56:28.524Z,2.47
2018-09-25T22:59:01.730Z,3.27
2018-09-25T23:01:34.946Z,3.60
2018-09-25T23:04:08.175Z,2.40
2018-09-25T23:06:41.364Z,2.67
2018-09-25T23:09:14.657Z,2.77
2018-09-25T23:11:47.929Z,2.60
2018-09-25T23:14:21.087Z,3.23
2018-09-25T23:16:54.306Z,2.30
2018-09-25T23:19:27.492Z,2.10
2018-09-25T23:22:00.685Z,2.27
2018-09-25T23:24:33.910Z,2.50
2018-09-25T23:27:07.079Z,2.20
2018-09-25T23:29:40.240Z,2.60
2018-09-25T23:32:13.494Z,2.50
2018-09-25T23:34:46.549Z,2.40
2018-09-25T23:37:19.746Z,2.87
2018-09-25T23:41:58.805Z,2.40
2018-09-25T23:44:31.900Z,2.33
2018-09-25T23:47:04.749Z,2.00
2018-09-25T23:51:43.770Z,2.10
2018-09-25T23:54:20.034Z,2.20
2018-09-25T23:56:53.621Z,2.40
2018-09-25T23:59:29.550Z,2.27
